sensor_id;sensor_type;location;lat;lon;timestamp;temperature;humidity
11700;DHT22;5906;51.660;6.674;2023-04-06T00:01:08;0.80;99.90
11700;DHT22;5906;51.660;6.674;2023-04-06T00:03:35;0.80;99.90
11700;DHT22;5906;51.660;6.674;2023-04-06T00:06:02;0.70;99.90
11700;DHT22;5906;51.660;6.674;2023-04-06T00:08:29;0.70;99.90
11700;DHT22;5906;51.660;6.674;2023-04-06T00:10:57;0.70;99.90
11700;DHT22;5906;51.660;6.674;2023-04-06T00:13:24;0.60;99.90
11700;DHT22;5906;51.660;6.674;2023-04-06T00:15:51;0.60;99.90
11700;DHT22;5906;51.660;6.674;2023-04-06T00:18:18;0.60;99.90
11700;DHT22;5906;51.660;6.674;2023-04-06T00:20:46;0.60;99.90
11700;DHT22;5906;51.660;6.674;2023-04-06T00:23:13;0.60;99.90
11700;DHT22;5906;51.660;6.674;2023-04-06T00:25:40;0.50;99.90
11700;DHT22;5906;51.660;6.674;2023-04-06T00:28:07;0.50;99.90
11700;DHT22;5906;51.660;6.674;2023-04-06T00:30:34;0.40;99.90
11700;DHT22;5906;51.660;6.674;2023-04-06T00:33:01;0.40;99.90
11700;DHT22;5906;51.660;6.674;2023-04-06T00:35:28;0.40;99.90
11700;DHT22;5906;51.660;6.674;2023-04-06T00:37:54;0.40;99.90
11700;DHT22;5906;51.660;6.674;2023-04-06T00:40:22;0.40;99.90
11700;DHT22;5906;51.660;6.674;2023-04-06T00:42:49;0.30;99.90
11700;DHT22;5906;51.660;6.674;2023-04-06T00:45:16;0.30;99.90
11700;DHT22;5906;51.660;6.674;2023-04-06T00:47:43;0.30;99.90
11700;DHT22;5906;51.660;6.674;2023-04-06T00:50:10;0.20;99.90
11700;DHT22;5906;51.660;6.674;2023-04-06T00:52:37;0.20;99.90
11700;DHT22;5906;51.660;6.674;2023-04-06T00:55:04;0.20;99.90
11700;DHT22;5906;51.660;6.674;2023-04-06T00:57:32;0.10;99.90
11700;DHT22;5906;51.660;6.674;2023-04-06T00:59:59;0.10;99.90
11700;DHT22;5906;51.660;6.674;2023-04-06T01:02:26;0.10;99.90
11700;DHT22;5906;51.660;6.674;2023-04-06T01:04:53;0.10;99.90
11700;DHT22;5906;51.660;6.674;2023-04-06T01:07:21;0.10;99.90
11700;DHT22;5906;51.660;6.674;2023-04-06T01:09:48;0.00;99.90
11700;DHT22;5906;51.660;6.674;2023-04-06T01:12:16;0.00;99.90
11700;DHT22;5906;51.660;6.674;2023-04-06T01:14:43;0.00;99.90
11700;DHT22;5906;51.660;6.674;2023-04-06T01:17:10;0.00;99.90
11700;DHT22;5906;51.660;6.674;2023-04-06T01:19:37;0.00;99.90
11700;DHT22;5906;51.660;6.674;2023-04-06T01:22:04;0.00;99.90
11700;DHT22;5906;51.660;6.674;2023-04-06T01:24:31;-0.10;99.90
11700;DHT22;5906;51.660;6.674;2023-04-06T01:26:59;-0.10;99.90
11700;DHT22;5906;51.660;6.674;2023-04-06T01:29:25;-0.10;99.90
11700;DHT22;5906;51.660;6.674;2023-04-06T01:31:52;-0.20;99.90
11700;DHT22;5906;51.660;6.674;2023-04-06T01:34:20;-0.20;99.90
11700;DHT22;5906;51.660;6.674;2023-04-06T01:36:47;-0.20;99.90
11700;DHT22;5906;51.660;6.674;2023-04-06T01:39:14;-0.20;99.90
11700;DHT22;5906;51.660;6.674;2023-04-06T01:41:41;-0.20;99.90
11700;DHT22;5906;51.660;6.674;2023-04-06T01:44:08;-0.30;99.90
11700;DHT22;5906;51.660;6.674;2023-04-06T01:46:35;-0.30;99.90
11700;DHT22;5906;51.660;6.674;2023-04-06T01:49:02;-0.30;99.90
11700;DHT22;5906;51.660;6.674;2023-04-06T01:51:29;-0.30;99.90
11700;DHT22;5906;51.660;6.674;2023-04-06T01:53:56;-0.30;99.90
11700;DHT22;5906;51.660;6.674;2023-04-06T01:56:24;-0.30;99.90
11700;DHT22;5906;51.660;6.674;2023-04-06T01:58:51;-0.30;99.90
11700;DHT22;5906;51.660;6.674;2023-04-06T02:01:18;-0.30;99.90
11700;DHT22;5906;51.660;6.674;2023-04-06T02:03:45;-0.40;99.90
11700;DHT22;5906;51.660;6.674;2023-04-06T02:06:12;-0.40;99.90
11700;DHT22;5906;51.660;6.674;2023-04-06T02:08:39;-0.50;99.90
11700;DHT22;5906;51.660;6.674;2023-04-06T02:11:06;-0.50;99.90
11700;DHT22;5906;51.660;6.674;2023-04-06T02:13:33;-0.50;99.90
11700;DHT22;5906;51.660;6.674;2023-04-06T02:16:01;-0.60;99.90
11700;DHT22;5906;51.660;6.674;2023-04-06T02:18:32;-0.60;99.90
11700;DHT22;5906;51.660;6.674;2023-04-06T02:20:59;-0.60;99.90
11700;DHT22;5906;51.660;6.674;2023-04-06T02:23:26;-0.60;99.90
11700;DHT22;5906;51.660;6.674;2023-04-06T02:25:54;-0.70;99.90
11700;DHT22;5906;51.660;6.674;2023-04-06T02:28:21;-0.60;99.90
11700;DHT22;5906;51.660;6.674;2023-04-06T02:30:48;-0.70;99.90
11700;DHT22;5906;51.660;6.674;2023-04-06T02:33:15;-0.70;99.90
11700;DHT22;5906;51.660;6.674;2023-04-06T02:35:44;-0.80;99.90
11700;DHT22;5906;51.660;6.674;2023-04-06T02:38:11;-0.80;99.90
11700;DHT22;5906;51.660;6.674;2023-04-06T02:40:38;-0.80;99.90
11700;DHT22;5906;51.660;6.674;2023-04-06T02:43:05;-0.80;99.90
11700;DHT22;5906;51.660;6.674;2023-04-06T02:45:32;-0.80;99.90
11700;DHT22;5906;51.660;6.674;2023-04-06T02:47:59;-0.80;99.90
11700;DHT22;5906;51.660;6.674;2023-04-06T02:50:26;-0.80;99.90
11700;DHT22;5906;51.660;6.674;2023-04-06T02:52:54;-0.90;99.90
11700;DHT22;5906;51.660;6.674;2023-04-06T02:55:21;-0.90;99.90
11700;DHT22;5906;51.660;6.674;2023-04-06T02:57:48;-0.80;99.90
11700;DHT22;5906;51.660;6.674;2023-04-06T03:00:15;-0.80;99.90
11700;DHT22;5906;51.660;6.674;2023-04-06T03:02:42;-0.80;99.90
11700;DHT22;5906;51.660;6.674;2023-04-06T03:05:09;-0.80;99.90
11700;DHT22;5906;51.660;6.674;2023-04-06T03:07:36;-0.80;99.90
11700;DHT22;5906;51.660;6.674;2023-04-06T03:10:03;-0.80;99.90
11700;DHT22;5906;51.660;6.674;2023-04-06T03:12:30;-0.80;99.90
11700;DHT22;5906;51.660;6.674;2023-04-06T03:14:57;-0.80;99.90
11700;DHT22;5906;51.660;6.674;2023-04-06T03:17:24;-0.90;99.90
11700;DHT22;5906;51.660;6.674;2023-04-06T03:19:51;-0.90;99.90
11700;DHT22;5906;51.660;6.674;2023-04-06T03:22:19;-0.90;99.90
11700;DHT22;5906;51.660;6.674;2023-04-06T03:24:47;-0.90;99.90
11700;DHT22;5906;51.660;6.674;2023-04-06T03:27:13;-1.00;99.90
11700;DHT22;5906;51.660;6.674;2023-04-06T03:29:41;-0.90;99.90
11700;DHT22;5906;51.660;6.674;2023-04-06T03:32:08;-1.00;99.90
11700;DHT22;5906;51.660;6.674;2023-04-06T03:34:38;-0.90;99.90
11700;DHT22;5906;51.660;6.674;2023-04-06T03:37:05;-1.00;99.90
11700;DHT22;5906;51.660;6.674;2023-04-06T03:39:36;-0.90;99.90
11700;DHT22;5906;51.660;6.674;2023-04-06T03:42:03;-0.90;99.90
11700;DHT22;5906;51.660;6.674;2023-04-06T03:44:30;-0.90;99.90
11700;DHT22;5906;51.660;6.674;2023-04-06T03:46:58;-1.00;99.90
11700;DHT22;5906;51.660;6.674;2023-04-06T03:49:25;-1.00;99.90
11700;DHT22;5906;51.660;6.674;2023-04-06T03:51:53;-1.00;99.90
11700;DHT22;5906;51.660;6.674;2023-04-06T03:54:20;-1.00;99.90
11700;DHT22;5906;51.660;6.674;2023-04-06T03:56:47;-1.00;99.90
11700;DHT22;5906;51.660;6.674;2023-04-06T03:59:14;-1.00;99.90
11700;DHT22;5906;51.660;6.674;2023-04-06T04:01:41;-1.00;99.90
11700;DHT22;5906;51.660;6.674;2023-04-06T04:04:10;-1.00;99.90
11700;DHT22;5906;51.660;6.674;2023-04-06T04:06:37;-1.00;99.90
11700;DHT22;5906;51.660;6.674;2023-04-06T04:09:04;-1.00;99.90
11700;DHT22;5906;51.660;6.674;2023-04-06T04:11:31;-1.00;99.90
11700;DHT22;5906;51.660;6.674;2023-04-06T04:13:58;-1.00;99.90
11700;DHT22;5906;51.660;6.674;2023-04-06T04:16:25;-1.00;99.90
11700;DHT22;5906;51.660;6.674;2023-04-06T04:18:52;-1.00;99.90
11700;DHT22;5906;51.660;6.674;2023-04-06T04:21:19;-1.10;99.90
11700;DHT22;5906;51.660;6.674;2023-04-06T04:23:47;-1.10;99.90
11700;DHT22;5906;51.660;6.674;2023-04-06T04:26:14;-1.10;99.90
11700;DHT22;5906;51.660;6.674;2023-04-06T04:28:41;-1.10;99.90
11700;DHT22;5906;51.660;6.674;2023-04-06T04:31:08;-1.10;99.90
11700;DHT22;5906;51.660;6.674;2023-04-06T04:33:35;-1.10;99.90
11700;DHT22;5906;51.660;6.674;2023-04-06T04:36:02;-1.10;99.90
11700;DHT22;5906;51.660;6.674;2023-04-06T04:38:29;-1.10;99.90
11700;DHT22;5906;51.660;6.674;2023-04-06T04:40:56;-1.10;99.90
11700;DHT22;5906;51.660;6.674;2023-04-06T04:43:23;-1.10;99.90
11700;DHT22;5906;51.660;6.674;2023-04-06T04:45:50;-1.10;99.90
11700;DHT22;5906;51.660;6.674;2023-04-06T04:48:17;-1.20;99.90
11700;DHT22;5906;51.660;6.674;2023-04-06T04:50:44;-1.10;99.90
11700;DHT22;5906;51.660;6.674;2023-04-06T04:53:12;-1.10;99.90
11700;DHT22;5906;51.660;6.674;2023-04-06T04:55:38;-1.20;99.90
11700;DHT22;5906;51.660;6.674;2023-04-06T04:58:05;-1.20;99.90
11700;DHT22;5906;51.660;6.674;2023-04-06T05:00:32;-1.10;99.90
11700;DHT22;5906;51.660;6.674;2023-04-06T05:02:59;-1.10;99.90
11700;DHT22;5906;51.660;6.674;2023-04-06T05:05:26;-1.10;99.90
11700;DHT22;5906;51.660;6.674;2023-04-06T05:07:53;-1.00;99.90
11700;DHT22;5906;51.660;6.674;2023-04-06T05:10:21;-0.90;99.90
11700;DHT22;5906;51.660;6.674;2023-04-06T05:12:48;-0.80;99.90
11700;DHT22;5906;51.660;6.674;2023-04-06T05:15:15;-0.70;99.90
11700;DHT22;5906;51.660;6.674;2023-04-06T05:17:42;-0.60;99.90
11700;DHT22;5906;51.660;6.674;2023-04-06T05:20:10;-0.50;99.90
11700;DHT22;5906;51.660;6.674;2023-04-06T05:22:37;-0.40;99.90
11700;DHT22;5906;51.660;6.674;2023-04-06T05:25:05;-0.30;99.90
11700;DHT22;5906;51.660;6.674;2023-04-06T05:27:32;-0.20;99.90
11700;DHT22;5906;51.660;6.674;2023-04-06T05:29:58;-0.10;99.90
11700;DHT22;5906;51.660;6.674;2023-04-06T05:32:27;0.00;99.90
11700;DHT22;5906;51.660;6.674;2023-04-06T05:34:54;0.00;27.20
11700;DHT22;5906;51.660;6.674;2023-04-06T05:37:21;0.10;1.00
11700;DHT22;5906;51.660;6.674;2023-04-06T05:39:48;0.10;1.00
11700;DHT22;5906;51.660;6.674;2023-04-06T05:42:15;0.20;1.00
11700;DHT22;5906;51.660;6.674;2023-04-06T05:44:43;0.30;1.00
11700;DHT22;5906;51.660;6.674;2023-04-06T05:47:10;0.40;99.90
11700;DHT22;5906;51.660;6.674;2023-04-06T05:49:37;0.50;99.90
11700;DHT22;5906;51.660;6.674;2023-04-06T05:52:04;0.60;31.00
11700;DHT22;5906;51.660;6.674;2023-04-06T05:54:31;0.70;1.00
11700;DHT22;5906;51.660;6.674;2023-04-06T05:56:58;0.80;1.00
11700;DHT22;5906;51.660;6.674;2023-04-06T05:59:25;0.80;1.00
11700;DHT22;5906;51.660;6.674;2023-04-06T06:01:53;0.90;1.00
11700;DHT22;5906;51.660;6.674;2023-04-06T06:04:20;1.00;99.90
11700;DHT22;5906;51.660;6.674;2023-04-06T06:06:47;1.10;25.10
11700;DHT22;5906;51.660;6.674;2023-04-06T06:09:14;1.30;1.00
11700;DHT22;5906;51.660;6.674;2023-04-06T06:11:41;1.40;1.00
11700;DHT22;5906;51.660;6.674;2023-04-06T06:14:08;1.50;1.00
11700;DHT22;5906;51.660;6.674;2023-04-06T06:16:35;1.70;1.00
11700;DHT22;5906;51.660;6.674;2023-04-06T06:19:02;1.80;1.00
11700;DHT22;5906;51.660;6.674;2023-04-06T06:21:29;1.90;1.00
11700;DHT22;5906;51.660;6.674;2023-04-06T06:23:57;2.10;99.90
11700;DHT22;5906;51.660;6.674;2023-04-06T06:26:24;2.30;96.00
11700;DHT22;5906;51.660;6.674;2023-04-06T06:28:52;2.40;1.00
11700;DHT22;5906;51.660;6.674;2023-04-06T06:31:19;2.50;1.00
11700;DHT22;5906;51.660;6.674;2023-04-06T06:33:49;2.70;1.00
11700;DHT22;5906;51.660;6.674;2023-04-06T06:36:18;2.90;1.00
11700;DHT22;5906;51.660;6.674;2023-04-06T06:38:45;3.10;1.00
11700;DHT22;5906;51.660;6.674;2023-04-06T06:41:12;3.40;1.00
11700;DHT22;5906;51.660;6.674;2023-04-06T06:43:39;3.70;1.00
11700;DHT22;5906;51.660;6.674;2023-04-06T06:46:07;3.90;1.00
11700;DHT22;5906;51.660;6.674;2023-04-06T06:48:34;4.10;1.00
11700;DHT22;5906;51.660;6.674;2023-04-06T06:51:01;4.40;99.90
11700;DHT22;5906;51.660;6.674;2023-04-06T06:53:28;4.60;99.90
11700;DHT22;5906;51.660;6.674;2023-04-06T06:55:55;4.90;99.90
11700;DHT22;5906;51.660;6.674;2023-04-06T06:58:22;5.20;99.90
11700;DHT22;5906;51.660;6.674;2023-04-06T07:00:49;5.40;99.90
11700;DHT22;5906;51.660;6.674;2023-04-06T07:03:16;5.70;99.90
11700;DHT22;5906;51.660;6.674;2023-04-06T07:05:47;5.90;99.90
11700;DHT22;5906;51.660;6.674;2023-04-06T07:08:21;6.00;99.90
11700;DHT22;5906;51.660;6.674;2023-04-06T07:10:52;6.30;99.90
11700;DHT22;5906;51.660;6.674;2023-04-06T07:13:20;6.60;99.90
11700;DHT22;5906;51.660;6.674;2023-04-06T07:15:50;6.80;99.90
11700;DHT22;5906;51.660;6.674;2023-04-06T07:18:19;7.00;99.90
11700;DHT22;5906;51.660;6.674;2023-04-06T07:20:46;7.30;99.90
11700;DHT22;5906;51.660;6.674;2023-04-06T07:23:13;7.50;99.90
11700;DHT22;5906;51.660;6.674;2023-04-06T07:25:41;7.70;99.90
11700;DHT22;5906;51.660;6.674;2023-04-06T07:28:08;8.00;99.90
11700;DHT22;5906;51.660;6.674;2023-04-06T07:30:37;8.30;99.90
11700;DHT22;5906;51.660;6.674;2023-04-06T07:33:04;8.60;99.00
11700;DHT22;5906;51.660;6.674;2023-04-06T07:35:33;8.60;88.80
11700;DHT22;5906;51.660;6.674;2023-04-06T07:38:01;8.50;81.60
11700;DHT22;5906;51.660;6.674;2023-04-06T07:40:30;8.60;77.50
11700;DHT22;5906;51.660;6.674;2023-04-06T07:42:59;8.70;74.90
11700;DHT22;5906;51.660;6.674;2023-04-06T07:45:26;8.70;66.90
11700;DHT22;5906;51.660;6.674;2023-04-06T07:47:53;8.80;58.10
11700;DHT22;5906;51.660;6.674;2023-04-06T07:50:21;8.80;56.50
11700;DHT22;5906;51.660;6.674;2023-04-06T07:52:48;8.90;59.00
11700;DHT22;5906;51.660;6.674;2023-04-06T07:55:15;9.10;53.10
11700;DHT22;5906;51.660;6.674;2023-04-06T07:57:41;9.30;48.80
11700;DHT22;5906;51.660;6.674;2023-04-06T08:00:09;9.30;45.10
11700;DHT22;5906;51.660;6.674;2023-04-06T08:02:37;9.50;43.30
11700;DHT22;5906;51.660;6.674;2023-04-06T08:05:04;9.70;40.00
11700;DHT22;5906;51.660;6.674;2023-04-06T08:07:32;9.90;45.50
11700;DHT22;5906;51.660;6.674;2023-04-06T08:09:59;10.10;31.50
11700;DHT22;5906;51.660;6.674;2023-04-06T08:12:26;10.20;29.90
11700;DHT22;5906;51.660;6.674;2023-04-06T08:14:53;10.40;28.50
11700;DHT22;5906;51.660;6.674;2023-04-06T08:17:20;10.60;24.30
11700;DHT22;5906;51.660;6.674;2023-04-06T08:19:47;10.80;19.30
11700;DHT22;5906;51.660;6.674;2023-04-06T08:22:14;10.80;16.20
11700;DHT22;5906;51.660;6.674;2023-04-06T08:24:41;11.10;12.40
11700;DHT22;5906;51.660;6.674;2023-04-06T08:27:08;11.30;9.40
11700;DHT22;5906;51.660;6.674;2023-04-06T08:29:35;11.40;4.90
11700;DHT22;5906;51.660;6.674;2023-04-06T08:32:03;11.50;2.30
11700;DHT22;5906;51.660;6.674;2023-04-06T08:34:34;11.50;1.00
11700;DHT22;5906;51.660;6.674;2023-04-06T08:37:02;11.50;1.00
11700;DHT22;5906;51.660;6.674;2023-04-06T08:39:29;11.50;1.00
11700;DHT22;5906;51.660;6.674;2023-04-06T08:41:57;11.50;1.00
11700;DHT22;5906;51.660;6.674;2023-04-06T08:44:26;11.80;1.00
11700;DHT22;5906;51.660;6.674;2023-04-06T08:46:54;12.00;1.00
11700;DHT22;5906;51.660;6.674;2023-04-06T08:49:22;12.10;1.00
11700;DHT22;5906;51.660;6.674;2023-04-06T08:51:49;12.00;1.00
11700;DHT22;5906;51.660;6.674;2023-04-06T08:54:17;12.10;1.00
11700;DHT22;5906;51.660;6.674;2023-04-06T08:56:45;12.00;1.00
11700;DHT22;5906;51.660;6.674;2023-04-06T08:59:13;12.30;1.00
11700;DHT22;5906;51.660;6.674;2023-04-06T09:01:40;12.40;1.00
11700;DHT22;5906;51.660;6.674;2023-04-06T09:04:09;12.60;1.00
11700;DHT22;5906;51.660;6.674;2023-04-06T09:06:39;12.90;1.00
11700;DHT22;5906;51.660;6.674;2023-04-06T09:09:07;13.00;1.00
11700;DHT22;5906;51.660;6.674;2023-04-06T09:11:45;13.10;1.00
11700;DHT22;5906;51.660;6.674;2023-04-06T09:14:13;13.30;1.00
11700;DHT22;5906;51.660;6.674;2023-04-06T09:16:41;13.40;1.00
11700;DHT22;5906;51.660;6.674;2023-04-06T09:19:09;13.50;1.00
11700;DHT22;5906;51.660;6.674;2023-04-06T09:21:37;13.70;1.00
11700;DHT22;5906;51.660;6.674;2023-04-06T09:24:06;13.90;1.00
11700;DHT22;5906;51.660;6.674;2023-04-06T09:26:45;14.10;1.00
11700;DHT22;5906;51.660;6.674;2023-04-06T09:29:25;14.10;1.00
11700;DHT22;5906;51.660;6.674;2023-04-06T09:32:03;14.10;1.00
11700;DHT22;5906;51.660;6.674;2023-04-06T09:34:30;14.20;1.00
11700;DHT22;5906;51.660;6.674;2023-04-06T09:36:57;14.10;1.00
11700;DHT22;5906;51.660;6.674;2023-04-06T09:39:25;14.20;1.00
11700;DHT22;5906;51.660;6.674;2023-04-06T09:41:53;14.10;1.00
11700;DHT22;5906;51.660;6.674;2023-04-06T09:44:21;14.30;1.00
11700;DHT22;5906;51.660;6.674;2023-04-06T09:46:48;14.20;1.00
11700;DHT22;5906;51.660;6.674;2023-04-06T09:49:30;14.30;1.00
11700;DHT22;5906;51.660;6.674;2023-04-06T09:52:02;14.30;1.00
11700;DHT22;5906;51.660;6.674;2023-04-06T09:54:34;14.30;1.00
11700;DHT22;5906;51.660;6.674;2023-04-06T09:57:29;14.30;1.00
11700;DHT22;5906;51.660;6.674;2023-04-06T10:00:07;14.10;1.00
11700;DHT22;5906;51.660;6.674;2023-04-06T10:05:37;14.40;1.00
11700;DHT22;5906;51.660;6.674;2023-04-06T10:08:08;14.60;1.00
11700;DHT22;5906;51.660;6.674;2023-04-06T10:10:36;14.80;1.00
11700;DHT22;5906;51.660;6.674;2023-04-06T10:13:04;15.00;1.00
11700;DHT22;5906;51.660;6.674;2023-04-06T10:15:32;15.00;1.00
11700;DHT22;5906;51.660;6.674;2023-04-06T10:18:00;15.00;1.00
11700;DHT22;5906;51.660;6.674;2023-04-06T10:26:22;14.80;1.00
11700;DHT22;5906;51.660;6.674;2023-04-06T10:28:49;14.90;1.00
11700;DHT22;5906;51.660;6.674;2023-04-06T10:31:27;14.90;1.00
11700;DHT22;5906;51.660;6.674;2023-04-06T10:33:59;14.80;1.00
11700;DHT22;5906;51.660;6.674;2023-04-06T10:36:28;15.00;1.00
11700;DHT22;5906;51.660;6.674;2023-04-06T10:39:00;15.10;1.00
11700;DHT22;5906;51.660;6.674;2023-04-06T10:41:44;15.00;1.00
11700;DHT22;5906;51.660;6.674;2023-04-06T10:44:23;15.00;1.00
11700;DHT22;5906;51.660;6.674;2023-04-06T10:46:59;14.90;1.00
11700;DHT22;5906;51.660;6.674;2023-04-06T10:49:29;14.80;1.00
11700;DHT22;5906;51.660;6.674;2023-04-06T10:51:58;14.70;1.00
11700;DHT22;5906;51.660;6.674;2023-04-06T10:54:26;14.70;1.00
11700;DHT22;5906;51.660;6.674;2023-04-06T10:56:53;14.70;1.00
11700;DHT22;5906;51.660;6.674;2023-04-06T10:59:21;14.70;1.00
11700;DHT22;5906;51.660;6.674;2023-04-06T11:01:48;14.80;1.00
11700;DHT22;5906;51.660;6.674;2023-04-06T11:04:17;14.90;1.00
11700;DHT22;5906;51.660;6.674;2023-04-06T11:06:49;14.80;1.00
11700;DHT22;5906;51.660;6.674;2023-04-06T11:09:27;14.90;1.00
11700;DHT22;5906;51.660;6.674;2023-04-06T11:11:55;15.00;1.00
11700;DHT22;5906;51.660;6.674;2023-04-06T11:14:23;15.10;1.00
11700;DHT22;5906;51.660;6.674;2023-04-06T11:16:50;15.20;1.00
11700;DHT22;5906;51.660;6.674;2023-04-06T11:19:18;14.90;1.00
11700;DHT22;5906;51.660;6.674;2023-04-06T11:21:47;14.80;1.00
11700;DHT22;5906;51.660;6.674;2023-04-06T11:26:56;15.00;1.00
11700;DHT22;5906;51.660;6.674;2023-04-06T11:29:26;14.90;1.00
11700;DHT22;5906;51.660;6.674;2023-04-06T11:31:58;15.00;1.00
11700;DHT22;5906;51.660;6.674;2023-04-06T11:34:26;15.20;1.00
11700;DHT22;5906;51.660;6.674;2023-04-06T11:36:56;15.20;1.00
11700;DHT22;5906;51.660;6.674;2023-04-06T11:39:25;15.00;1.00
11700;DHT22;5906;51.660;6.674;2023-04-06T11:41:56;15.00;1.00
11700;DHT22;5906;51.660;6.674;2023-04-06T11:44:43;15.00;1.00
11700;DHT22;5906;51.660;6.674;2023-04-06T11:47:13;15.10;1.00
11700;DHT22;5906;51.660;6.674;2023-04-06T11:49:41;15.30;1.00
11700;DHT22;5906;51.660;6.674;2023-04-06T11:52:16;15.40;1.00
11700;DHT22;5906;51.660;6.674;2023-04-06T11:54:43;15.50;1.00
11700;DHT22;5906;51.660;6.674;2023-04-06T11:57:10;15.60;1.00
11700;DHT22;5906;51.660;6.674;2023-04-06T11:59:37;15.30;1.00
11700;DHT22;5906;51.660;6.674;2023-04-06T12:02:05;15.30;1.00
11700;DHT22;5906;51.660;6.674;2023-04-06T12:04:32;15.30;1.00
11700;DHT22;5906;51.660;6.674;2023-04-06T12:07:00;15.20;1.00
11700;DHT22;5906;51.660;6.674;2023-04-06T12:09:27;15.00;1.00
11700;DHT22;5906;51.660;6.674;2023-04-06T12:11:54;15.00;1.00
11700;DHT22;5906;51.660;6.674;2023-04-06T12:14:22;15.10;1.00
11700;DHT22;5906;51.660;6.674;2023-04-06T12:16:49;15.20;1.00
11700;DHT22;5906;51.660;6.674;2023-04-06T12:19:16;15.10;1.00
11700;DHT22;5906;51.660;6.674;2023-04-06T12:21:43;15.10;1.00
11700;DHT22;5906;51.660;6.674;2023-04-06T12:24:10;15.10;1.00
11700;DHT22;5906;51.660;6.674;2023-04-06T12:26:38;15.30;1.00
11700;DHT22;5906;51.660;6.674;2023-04-06T12:29:05;15.30;1.00
11700;DHT22;5906;51.660;6.674;2023-04-06T12:31:35;15.30;1.00
11700;DHT22;5906;51.660;6.674;2023-04-06T12:34:03;15.40;1.00
11700;DHT22;5906;51.660;6.674;2023-04-06T12:36:30;15.30;1.00
11700;DHT22;5906;51.660;6.674;2023-04-06T12:38:58;15.10;1.00
11700;DHT22;5906;51.660;6.674;2023-04-06T12:41:27;15.00;1.00
11700;DHT22;5906;51.660;6.674;2023-04-06T12:43:54;15.00;1.00
11700;DHT22;5906;51.660;6.674;2023-04-06T12:46:21;15.00;1.00
11700;DHT22;5906;51.660;6.674;2023-04-06T12:48:48;15.00;1.00
11700;DHT22;5906;51.660;6.674;2023-04-06T12:51:16;15.00;1.00
11700;DHT22;5906;51.660;6.674;2023-04-06T12:53:44;14.90;1.00
11700;DHT22;5906;51.660;6.674;2023-04-06T12:56:13;15.00;1.00
11700;DHT22;5906;51.660;6.674;2023-04-06T12:58:40;15.00;1.00
11700;DHT22;5906;51.660;6.674;2023-04-06T13:01:10;14.90;1.00
11700;DHT22;5906;51.660;6.674;2023-04-06T13:03:40;14.80;1.00
11700;DHT22;5906;51.660;6.674;2023-04-06T13:06:08;14.90;1.00
11700;DHT22;5906;51.660;6.674;2023-04-06T13:08:35;15.00;1.00
11700;DHT22;5906;51.660;6.674;2023-04-06T13:11:06;14.90;1.00
11700;DHT22;5906;51.660;6.674;2023-04-06T13:13:36;14.70;1.00
11700;DHT22;5906;51.660;6.674;2023-04-06T13:16:06;14.60;1.00
11700;DHT22;5906;51.660;6.674;2023-04-06T13:18:34;14.80;1.00
11700;DHT22;5906;51.660;6.674;2023-04-06T13:21:06;14.70;1.00
11700;DHT22;5906;51.660;6.674;2023-04-06T13:23:34;14.60;1.00
11700;DHT22;5906;51.660;6.674;2023-04-06T13:26:04;14.50;1.00
11700;DHT22;5906;51.660;6.674;2023-04-06T13:28:33;14.30;1.00
11700;DHT22;5906;51.660;6.674;2023-04-06T13:31:01;14.30;1.00
11700;DHT22;5906;51.660;6.674;2023-04-06T13:33:28;14.20;1.00
11700;DHT22;5906;51.660;6.674;2023-04-06T13:35:56;13.70;1.00
11700;DHT22;5906;51.660;6.674;2023-04-06T13:38:23;13.60;1.00
11700;DHT22;5906;51.660;6.674;2023-04-06T13:40:50;13.50;1.00
11700;DHT22;5906;51.660;6.674;2023-04-06T13:43:18;13.30;1.00
11700;DHT22;5906;51.660;6.674;2023-04-06T13:45:51;13.10;1.00
11700;DHT22;5906;51.660;6.674;2023-04-06T13:48:18;12.90;1.00
11700;DHT22;5906;51.660;6.674;2023-04-06T13:50:46;12.90;1.00
11700;DHT22;5906;51.660;6.674;2023-04-06T13:53:13;12.70;1.00
11700;DHT22;5906;51.660;6.674;2023-04-06T13:55:40;12.70;1.00
11700;DHT22;5906;51.660;6.674;2023-04-06T13:58:07;12.50;10.60
11700;DHT22;5906;51.660;6.674;2023-04-06T14:00:34;12.50;33.90
11700;DHT22;5906;51.660;6.674;2023-04-06T14:03:02;12.40;60.20
11700;DHT22;5906;51.660;6.674;2023-04-06T14:05:33;12.60;99.90
11700;DHT22;5906;51.660;6.674;2023-04-06T14:08:00;12.50;99.90
11700;DHT22;5906;51.660;6.674;2023-04-06T14:10:27;12.50;99.90
11700;DHT22;5906;51.660;6.674;2023-04-06T14:12:54;12.60;99.90
11700;DHT22;5906;51.660;6.674;2023-04-06T14:15:22;12.70;99.90
11700;DHT22;5906;51.660;6.674;2023-04-06T14:17:50;12.80;99.90
11700;DHT22;5906;51.660;6.674;2023-04-06T14:20:18;12.80;99.90
11700;DHT22;5906;51.660;6.674;2023-04-06T14:22:45;12.80;99.90
11700;DHT22;5906;51.660;6.674;2023-04-06T14:25:13;12.70;99.90
11700;DHT22;5906;51.660;6.674;2023-04-06T14:27:40;12.70;99.90
11700;DHT22;5906;51.660;6.674;2023-04-06T14:30:08;12.60;99.90
11700;DHT22;5906;51.660;6.674;2023-04-06T14:32:35;12.70;99.90
11700;DHT22;5906;51.660;6.674;2023-04-06T14:35:07;12.50;99.90
11700;DHT22;5906;51.660;6.674;2023-04-06T14:37:34;12.30;1.00
11700;DHT22;5906;51.660;6.674;2023-04-06T14:40:05;12.40;1.00
11700;DHT22;5906;51.660;6.674;2023-04-06T14:42:32;12.40;1.00
11700;DHT22;5906;51.660;6.674;2023-04-06T14:45:00;12.20;1.00
11700;DHT22;5906;51.660;6.674;2023-04-06T14:47:27;12.30;1.00
11700;DHT22;5906;51.660;6.674;2023-04-06T14:49:54;12.20;1.00
11700;DHT22;5906;51.660;6.674;2023-04-06T14:52:21;12.10;1.00
11700;DHT22;5906;51.660;6.674;2023-04-06T14:54:49;11.90;1.00
11700;DHT22;5906;51.660;6.674;2023-04-06T14:57:16;11.80;1.00
11700;DHT22;5906;51.660;6.674;2023-04-06T14:59:43;11.60;1.00
11700;DHT22;5906;51.660;6.674;2023-04-06T15:02:10;11.50;1.00
11700;DHT22;5906;51.660;6.674;2023-04-06T15:04:39;11.40;1.00
11700;DHT22;5906;51.660;6.674;2023-04-06T15:07:06;11.30;1.00
11700;DHT22;5906;51.660;6.674;2023-04-06T15:09:33;11.20;1.00
11700;DHT22;5906;51.660;6.674;2023-04-06T15:12:00;11.20;1.00
11700;DHT22;5906;51.660;6.674;2023-04-06T15:14:27;11.00;1.00
11700;DHT22;5906;51.660;6.674;2023-04-06T15:16:54;10.90;37.10
11700;DHT22;5906;51.660;6.674;2023-04-06T15:19:22;11.00;1.00
11700;DHT22;5906;51.660;6.674;2023-04-06T15:21:49;11.10;99.90
11700;DHT22;5906;51.660;6.674;2023-04-06T15:24:16;11.20;99.90
11700;DHT22;5906;51.660;6.674;2023-04-06T15:26:43;11.00;1.00
11700;DHT22;5906;51.660;6.674;2023-04-06T15:29:12;10.80;99.90
11700;DHT22;5906;51.660;6.674;2023-04-06T15:31:39;10.80;99.90
11700;DHT22;5906;51.660;6.674;2023-04-06T15:34:07;10.80;1.00
11700;DHT22;5906;51.660;6.674;2023-04-06T15:36:36;10.70;1.00
11700;DHT22;5906;51.660;6.674;2023-04-06T15:39:04;10.60;99.90
11700;DHT22;5906;51.660;6.674;2023-04-06T15:41:35;10.70;86.30
11700;DHT22;5906;51.660;6.674;2023-04-06T15:44:02;10.60;1.00
11700;DHT22;5906;51.660;6.674;2023-04-06T15:46:30;10.50;1.00
11700;DHT22;5906;51.660;6.674;2023-04-06T15:48:57;10.30;1.00
11700;DHT22;5906;51.660;6.674;2023-04-06T15:51:24;10.20;99.90
11700;DHT22;5906;51.660;6.674;2023-04-06T15:53:52;10.20;99.90
11700;DHT22;5906;51.660;6.674;2023-04-06T15:56:19;10.10;1.00
11700;DHT22;5906;51.660;6.674;2023-04-06T15:58:46;10.10;1.00
11700;DHT22;5906;51.660;6.674;2023-04-06T16:01:16;10.10;1.00
11700;DHT22;5906;51.660;6.674;2023-04-06T16:03:43;10.00;1.00
11700;DHT22;5906;51.660;6.674;2023-04-06T16:06:11;10.10;1.00
11700;DHT22;5906;51.660;6.674;2023-04-06T16:08:39;9.90;1.00
11700;DHT22;5906;51.660;6.674;2023-04-06T16:11:07;9.90;99.90
11700;DHT22;5906;51.660;6.674;2023-04-06T16:13:35;9.90;1.00